Time;durP1;ratioP1;P1;durP2;ratioP2;P2;SDS_P1;SDS_P2;PMS_P1;PMS_P2;Temp;Humidity;BMP_temperature;BMP_pressure;BME280_temperature;BME280_humidity;BME280_pressure;Samples;Min_cycle;Max_cycle;Signal;HPM_P1;HPM_P2
2022/04/17 00:02:01;;;;;;;0.33;0.33;;;4.50;99.90;;;;;;4973732;28;20885;-89
2022/04/17 00:04:27;;;;;;;0.40;0.40;;;4.50;99.90;;;;;;4992683;28;20452;-89
2022/04/17 00:06:52;;;;;;;0.40;0.40;;;4.50;99.90;;;;;;4982584;28;20549;-88
2022/04/17 00:09:18;;;;;;;0.30;0.30;;;4.40;99.90;;;;;;4991112;28;20205;-89
2022/04/17 00:11:44;;;;;;;0.33;0.33;;;4.40;99.90;;;;;;4972889;28;20197;-88
2022/04/17 00:14:12;;;;;;;0.40;0.40;;;4.50;99.90;;;;;;4971197;28;20602;-89
2022/04/17 00:16:40;;;;;;;0.40;0.40;;;4.50;99.90;;;;;;4972879;28;20205;-88
2022/04/17 00:19:06;;;;;;;0.40;0.40;;;4.50;99.90;;;;;;4989200;28;20480;-89
2022/04/17 00:21:32;;;;;;;0.40;0.40;;;4.40;99.90;;;;;;4990840;28;20452;-88
2022/04/17 00:23:58;;;;;;;0.30;0.30;;;4.30;99.90;;;;;;4988233;28;20822;-89
2022/04/17 00:26:25;;;;;;;0.40;0.40;;;4.40;99.90;;;;;;4977872;28;20461;-89
2022/04/17 00:28:51;;;;;;;0.40;0.40;;;4.30;99.90;;;;;;4978186;28;20975;-89
2022/04/17 00:31:16;;;;;;;0.40;0.40;;;4.20;99.90;;;;;;4991556;28;20455;-88
2022/04/17 00:33:42;;;;;;;0.50;0.50;;;4.10;99.90;;;;;;4972693;28;20228;-89
2022/04/17 00:36:07;;;;;;;0.40;0.40;;;4.00;99.90;;;;;;4990937;28;20303;-89
2022/04/17 00:38:33;;;;;;;0.40;0.40;;;3.90;99.90;;;;;;4992221;28;20203;-88
2022/04/17 00:40:58;;;;;;;0.40;0.40;;;3.80;99.90;;;;;;4972021;28;20235;-89
2022/04/17 00:43:26;;;;;;;0.40;0.40;;;3.80;99.90;;;;;;4987698;28;20264;-89
2022/04/17 00:45:55;;;;;;;0.50;0.50;;;3.60;99.90;;;;;;4965135;28;20190;-88
2022/04/17 00:48:21;;;;;;;0.50;0.50;;;3.50;99.90;;;;;;4973822;28;20999;-89
2022/04/17 00:50:48;;;;;;;0.40;0.40;;;3.50;99.90;;;;;;4987883;28;20483;-88
2022/04/17 00:53:14;;;;;;;0.50;0.50;;;3.60;99.90;;;;;;4973808;28;20193;-89
2022/04/17 00:55:40;;;;;;;0.37;0.37;;;3.60;99.90;;;;;;4970693;28;20448;-89
2022/04/17 00:58:06;;;;;;;0.40;0.40;;;3.60;99.90;;;;;;4971155;28;20603;-88
2022/04/17 01:00:34;;;;;;;0.40;0.40;;;3.40;99.90;;;;;;4972066;28;20448;-89
2022/04/17 01:03:01;;;;;;;0.40;0.40;;;3.60;99.90;;;;;;4990392;28;20188;-89
2022/04/17 01:05:26;;;;;;;0.40;0.40;;;3.60;99.90;;;;;;4974964;28;20523;-89
2022/04/17 01:07:52;;;;;;;0.50;0.50;;;3.50;99.90;;;;;;4986814;28;21447;-89
2022/04/17 01:10:18;;;;;;;0.40;0.40;;;3.50;99.90;;;;;;4986143;28;20701;-89
2022/04/17 01:12:44;;;;;;;0.40;0.40;;;3.70;99.90;;;;;;4980829;28;20488;-89
2022/04/17 01:15:11;;;;;;;0.50;0.50;;;3.70;99.90;;;;;;4970561;28;20237;-89
2022/04/17 01:17:36;;;;;;;0.50;0.50;;;3.60;99.90;;;;;;4981131;28;20448;-90
2022/04/17 01:20:02;;;;;;;0.50;0.50;;;3.50;99.90;;;;;;4989294;28;20437;-89
2022/04/17 01:22:28;;;;;;;0.30;0.30;;;3.50;99.90;;;;;;4989100;28;20902;-89
2022/04/17 01:27:38;;;;;;;0.47;0.47;;;3.40;99.90;;;;;;4985879;28;20263;-89
2022/04/17 01:30:04;;;;;;;0.40;0.40;;;3.50;99.90;;;;;;4988596;28;20448;-88
2022/04/17 01:32:30;;;;;;;0.50;0.50;;;3.40;99.90;;;;;;4987169;28;20543;-89
2022/04/17 01:34:55;;;;;;;0.47;0.47;;;3.50;99.90;;;;;;4979506;28;20456;-89
2022/04/17 01:37:21;;;;;;;0.50;0.50;;;3.50;99.90;;;;;;4986326;28;20272;-89
2022/04/17 01:39:47;;;;;;;0.50;0.50;;;3.70;99.90;;;;;;4991342;28;20195;-88
2022/04/17 01:42:12;;;;;;;0.40;0.40;;;3.70;99.90;;;;;;4971103;28;20962;-89
2022/04/17 01:44:39;;;;;;;0.50;0.50;;;3.70;99.90;;;;;;4988113;28;20215;-89
2022/04/17 01:47:04;;;;;;;0.40;0.40;;;3.80;99.90;;;;;;4986302;28;20255;-89
2022/04/17 01:49:30;;;;;;;0.40;0.40;;;3.60;99.90;;;;;;4988452;28;20487;-89
2022/04/17 01:51:56;;;;;;;0.50;0.50;;;3.50;99.90;;;;;;4973537;28;20446;-88
2022/04/17 01:54:23;;;;;;;0.50;0.50;;;3.60;99.90;;;;;;4988612;28;20237;-87
2022/04/17 01:56:48;;;;;;;0.40;0.40;;;3.50;99.90;;;;;;4967257;28;20468;-89
2022/04/17 01:59:18;;;;;;;0.40;0.40;;;3.50;99.90;;;;;;4986684;28;20949;-89
2022/04/17 02:01:45;;;;;;;0.50;0.50;;;3.50;99.90;;;;;;4983627;28;20268;-88
2022/04/17 02:04:11;;;;;;;0.50;0.50;;;3.50;99.90;;;;;;4973233;28;20495;-89
2022/04/17 02:06:39;;;;;;;0.40;0.40;;;3.30;99.90;;;;;;4989493;28;20436;-89
2022/04/17 02:09:07;;;;;;;0.50;0.50;;;3.30;99.90;;;;;;4988620;28;20456;-89
2022/04/17 02:11:33;;;;;;;0.50;0.50;;;3.20;99.90;;;;;;4969679;28;20455;-89
2022/04/17 02:13:59;;;;;;;0.40;0.40;;;3.40;99.90;;;;;;4983261;28;20444;-89
2022/04/17 02:16:25;;;;;;;0.40;0.40;;;3.50;99.90;;;;;;4984031;28;20212;-89
2022/04/17 02:18:52;;;;;;;0.50;0.50;;;3.50;99.90;;;;;;4986013;28;20530;-89
2022/04/17 02:21:18;;;;;;;0.40;0.40;;;3.50;99.90;;;;;;4972786;28;20539;-89
2022/04/17 02:23:45;;;;;;;0.40;0.40;;;3.50;99.90;;;;;;4988818;28;20455;-89
2022/04/17 02:26:12;;;;;;;0.50;0.50;;;3.20;99.90;;;;;;4973133;28;20519;-88
2022/04/17 02:28:40;;;;;;;0.40;0.40;;;3.20;99.90;;;;;;4987920;28;20495;-88
2022/04/17 02:31:08;;;;;;;0.50;0.50;;;3.10;99.90;;;;;;4985224;28;20459;-88
2022/04/17 02:33:36;;;;;;;0.40;0.40;;;3.10;99.90;;;;;;4970732;28;20452;-88
2022/04/17 02:36:02;;;;;;;0.50;0.50;;;3.20;99.90;;;;;;4985958;28;20447;-89
2022/04/17 02:38:28;;;;;;;0.40;0.40;;;3.10;99.90;;;;;;4987124;28;20452;-89
2022/04/17 02:40:54;;;;;;;0.50;0.50;;;3.10;99.90;;;;;;4974444;28;20197;-88
2022/04/17 02:43:20;;;;;;;0.50;0.50;;;3.10;99.90;;;;;;4979085;28;20251;-88
2022/04/17 02:45:46;;;;;;;0.40;0.40;;;2.90;99.90;;;;;;4976265;28;20452;-89
2022/04/17 02:48:12;;;;;;;0.50;0.50;;;3.00;99.90;;;;;;4986829;28;20227;-89
2022/04/17 02:50:38;;;;;;;0.50;0.50;;;3.10;99.90;;;;;;4988976;28;20444;-89
2022/04/17 02:53:04;;;;;;;0.50;0.50;;;3.10;99.90;;;;;;4970311;28;20452;-89
2022/04/17 02:55:30;;;;;;;0.40;0.40;;;3.00;99.90;;;;;;4986165;28;20479;-89
2022/04/17 02:57:56;;;;;;;0.40;0.40;;;3.00;99.90;;;;;;4988593;28;20224;-89
2022/04/17 03:00:23;;;;;;;0.40;0.40;;;2.90;99.90;;;;;;4986968;28;20224;-88
2022/04/17 03:05:39;;;;;;;0.50;0.50;;;3.00;99.90;;;;;;4980111;28;20443;-89
2022/04/17 03:08:14;;;;;;;0.40;0.40;;;3.00;99.90;;;;;;4987940;28;20483;-89
2022/04/17 03:10:46;;;;;;;0.40;0.40;;;2.90;99.90;;;;;;4990524;28;20435;-89
2022/04/17 03:13:12;;;;;;;0.50;0.50;;;2.90;99.90;;;;;;4985012;28;20447;-89
2022/04/17 03:15:38;;;;;;;0.40;0.40;;;2.90;99.90;;;;;;4990125;28;20475;-89
2022/04/17 03:18:08;;;;;;;0.50;0.50;;;3.00;99.90;;;;;;4990062;28;20181;-89
2022/04/17 03:20:34;;;;;;;0.40;0.40;;;3.00;99.90;;;;;;4990865;28;20948;-89
2022/04/17 03:23:03;;;;;;;0.40;0.40;;;3.30;99.90;;;;;;4991578;28;20453;-88
2022/04/17 03:25:30;;;;;;;0.50;0.50;;;3.10;99.90;;;;;;4992336;28;20432;-87
2022/04/17 03:27:57;;;;;;;0.40;0.40;;;3.10;99.90;;;;;;4975141;28;20547;-89
2022/04/17 03:30:23;;;;;;;0.40;0.40;;;3.00;99.90;;;;;;4985470;28;20432;-88
2022/04/17 03:32:50;;;;;;;0.50;0.50;;;3.00;99.90;;;;;;4992545;28;20444;-88
2022/04/17 03:35:16;;;;;;;0.30;0.30;;;3.20;99.90;;;;;;4973268;28;20539;-88
2022/04/17 03:37:42;;;;;;;0.40;0.40;;;3.00;99.90;;;;;;4990767;28;20441;-89
2022/04/17 03:40:10;;;;;;;0.50;0.50;;;3.00;99.90;;;;;;4992050;28;20883;-89
2022/04/17 03:42:36;;;;;;;0.50;0.50;;;2.80;99.90;;;;;;4992377;28;20990;-89
2022/04/17 03:45:06;;;;;;;0.50;0.50;;;2.80;99.90;;;;;;4974396;28;20448;-89
2022/04/17 03:47:32;;;;;;;0.47;0.47;;;2.80;99.90;;;;;;4992139;28;21298;-88
2022/04/17 03:49:58;;;;;;;0.40;0.40;;;2.70;99.90;;;;;;4991678;28;20462;-89
2022/04/17 03:52:24;;;;;;;0.50;0.50;;;2.70;99.90;;;;;;4972587;28;20440;-89
2022/04/17 03:54:49;;;;;;;0.40;0.40;;;2.80;99.90;;;;;;4974335;28;20495;-89
2022/04/17 03:57:15;;;;;;;0.40;0.40;;;2.70;99.90;;;;;;4989836;28;20663;-89
2022/04/17 03:59:40;;;;;;;0.50;0.50;;;2.70;99.90;;;;;;4990899;28;20192;-89
2022/04/17 04:02:07;;;;;;;0.40;0.40;;;2.60;99.90;;;;;;4989553;28;20193;-89
2022/04/17 04:04:41;;;;;;;0.40;0.40;;;2.40;99.90;;;;;;4990982;28;20198;-89
2022/04/17 04:07:06;;;;;;;0.60;0.60;;;2.60;99.90;;;;;;4989024;28;20471;-89
2022/04/17 04:09:32;;;;;;;0.50;0.50;;;2.70;99.90;;;;;;4988599;28;20772;-89
2022/04/17 04:12:00;;;;;;;0.50;0.50;;;2.50;99.90;;;;;;4977285;28;20673;-88
2022/04/17 04:14:26;;;;;;;0.50;0.50;;;2.40;99.90;;;;;;4990264;28;20681;-88
2022/04/17 04:16:59;;;;;;;0.47;0.47;;;2.50;99.90;;;;;;4990455;28;20459;-89
2022/04/17 04:19:25;;;;;;;0.60;0.60;;;2.50;99.90;;;;;;4989795;28;20197;-89
2022/04/17 04:21:50;;;;;;;0.50;0.50;;;2.60;99.90;;;;;;4987729;28;20440;-89
2022/04/17 04:24:30;;;;;;;;;;;;;;;;;;;;;
2022/04/17 04:29:41;;;;;;;0.50;0.50;;;2.80;99.90;;;;;;4989231;28;20547;-89
2022/04/17 04:32:07;;;;;;;0.50;0.50;;;3.40;99.90;;;;;;4983542;28;20524;-89
2022/04/17 04:34:32;;;;;;;0.40;0.40;;;3.30;99.90;;;;;;4963833;28;20193;-89
2022/04/17 04:36:58;;;;;;;0.40;0.40;;;3.20;99.90;;;;;;4965998;28;20463;-89
2022/04/17 04:39:23;;;;;;;0.50;0.50;;;3.00;99.90;;;;;;4989862;28;20597;-89
2022/04/17 04:41:49;;;;;;;0.50;0.50;;;3.10;99.90;;;;;;4987280;28;20212;-89
2022/04/17 04:44:14;;;;;;;0.43;0.43;;;3.00;99.90;;;;;;4991063;28;20256;-90
2022/04/17 04:46:40;;;;;;;0.60;0.60;;;3.20;99.90;;;;;;4973356;28;20214;-89
2022/04/17 04:51:50;;;;;;;0.40;0.40;;;3.00;99.90;;;;;;4989414;28;20203;-89
2022/04/17 04:54:16;;;;;;;0.50;0.50;;;2.90;99.90;;;;;;4980151;28;20552;-89
2022/04/17 04:56:41;;;;;;;0.50;0.50;;;3.00;99.90;;;;;;4988827;28;21212;-89
2022/04/17 04:59:09;;;;;;;0.40;0.40;;;2.90;99.90;;;;;;4992073;28;20924;-89
2022/04/17 05:01:35;;;;;;;0.40;0.40;;;2.80;99.90;;;;;;4984068;28;20195;-89
2022/04/17 05:04:00;;;;;;;0.40;0.40;;;2.90;99.90;;;;;;4991032;28;20543;-89
2022/04/17 05:06:26;;;;;;;0.40;0.40;;;2.90;99.90;;;;;;4986840;28;20452;-88
2022/04/17 05:08:51;;;;;;;0.50;0.50;;;3.00;99.90;;;;;;4991607;28;20351;-88
2022/04/17 05:11:17;;;;;;;0.50;0.50;;;3.00;99.90;;;;;;4980659;28;20190;-88
2022/04/17 05:13:43;;;;;;;0.40;0.40;;;3.00;99.90;;;;;;4972073;28;20201;-89
2022/04/17 05:16:09;;;;;;;0.50;0.50;;;3.20;99.90;;;;;;4990479;28;20236;-90
2022/04/17 05:18:34;;;;;;;0.50;0.50;;;3.30;99.90;;;;;;4983609;28;20459;-88
2022/04/17 05:21:01;;;;;;;0.50;0.50;;;3.20;99.90;;;;;;4986654;28;20219;-89
2022/04/17 05:23:29;;;;;;;0.47;0.47;;;3.30;99.90;;;;;;4977299;28;20240;-89
2022/04/17 05:25:59;;;;;;;0.50;0.50;;;3.40;99.90;;;;;;4979375;28;20452;-89
2022/04/17 05:28:30;;;;;;;0.43;0.43;;;3.60;99.90;;;;;;4985427;28;20504;-89
2022/04/17 05:30:56;;;;;;;0.50;0.50;;;3.70;99.90;;;;;;4986337;28;20535;-89
2022/04/17 05:33:22;;;;;;;0.40;0.40;;;3.80;99.90;;;;;;4987627;28;20463;-88
2022/04/17 05:35:49;;;;;;;0.50;0.50;;;3.80;99.90;;;;;;4983373;28;20472;-89
2022/04/17 05:38:15;;;;;;;0.50;0.50;;;3.90;99.90;;;;;;4986208;28;20468;-88
2022/04/17 05:40:43;;;;;;;0.50;0.50;;;4.20;99.90;;;;;;4982222;28;20492;-88
2022/04/17 05:43:10;;;;;;;0.40;0.40;;;4.40;99.90;;;;;;4981837;28;21072;-89
2022/04/17 05:45:36;;;;;;;0.40;0.40;;;4.70;99.90;;;;;;4973040;28;20441;-89
2022/04/17 05:48:05;;;;;;;0.40;0.40;;;4.90;99.90;;;;;;4971053;28;20546;-88
2022/04/17 05:50:31;;;;;;;0.40;0.40;;;5.00;99.90;;;;;;4987139;28;20436;-88
2022/04/17 05:52:57;;;;;;;0.40;0.40;;;5.10;99.90;;;;;;4990340;28;20491;-88
2022/04/17 05:55:22;;;;;;;0.40;0.40;;;5.30;99.90;;;;;;4986122;28;20444;-88
2022/04/17 05:57:48;;;;;;;0.37;0.37;;;5.40;99.90;;;;;;4985287;28;20273;-88
2022/04/17 06:00:16;;;;;;;0.40;0.40;;;5.40;99.90;;;;;;4978992;28;20267;-87
2022/04/17 06:02:46;;;;;;;0.40;0.40;;;5.60;99.90;;;;;;4962143;28;20189;-89
2022/04/17 06:05:13;;;;;;;0.40;0.40;;;5.80;99.90;;;;;;4983958;28;20491;-89
2022/04/17 06:07:39;;;;;;;0.30;0.30;;;6.10;99.90;;;;;;4981028;28;20562;-88
2022/04/17 06:10:06;;;;;;;0.40;0.40;;;6.20;99.90;;;;;;4983656;28;20444;-89
2022/04/17 06:12:34;;;;;;;0.40;0.40;;;6.40;99.90;;;;;;4986376;28;20547;-88
2022/04/17 06:15:00;;;;;;;0.30;0.30;;;6.60;99.90;;;;;;4986480;28;20526;-88
2022/04/17 06:17:26;;;;;;;0.40;0.40;;;6.70;99.90;;;;;;4986971;28;20456;-88
2022/04/17 06:19:51;;;;;;;0.30;0.30;;;6.90;99.90;;;;;;4970214;28;20498;-88
2022/04/17 06:22:18;;;;;;;0.30;0.30;;;7.10;99.90;;;;;;4967885;28;20200;-89
2022/04/17 06:24:44;;;;;;;0.30;0.30;;;7.30;99.90;;;;;;4986456;28;20605;-88
2022/04/17 06:27:09;;;;;;;0.20;0.20;;;7.40;99.90;;;;;;4969046;28;20460;-88
2022/04/17 06:29:35;;;;;;;0.30;0.30;;;7.60;99.90;;;;;;4968066;28;20522;-88
2022/04/17 06:32:01;;;;;;;0.30;0.30;;;7.80;99.90;;;;;;4966129;28;20219;-87
2022/04/17 06:34:26;;;;;;;0.30;0.30;;;8.00;99.90;;;;;;4971253;28;20284;-88
2022/04/17 06:36:52;;;;;;;0.30;0.30;;;8.10;99.90;;;;;;4982522;28;20280;-87
2022/04/17 06:39:17;;;;;;;0.30;0.30;;;8.30;99.90;;;;;;4988430;28;20236;-89
2022/04/17 06:41:44;;;;;;;0.30;0.30;;;8.50;99.90;;;;;;4980757;28;20189;-86
2022/04/17 06:44:11;;;;;;;0.30;0.30;;;8.60;99.90;;;;;;4972244;28;20247;-87
2022/04/17 06:46:38;;;;;;;0.20;0.20;;;8.70;99.90;;;;;;4986918;28;20446;-88
2022/04/17 06:49:03;;;;;;;0.30;0.30;;;8.70;99.90;;;;;;4988841;28;20508;-88
2022/04/17 06:51:29;;;;;;;0.30;0.30;;;8.70;99.90;;;;;;4967837;28;20499;-88
2022/04/17 06:53:54;;;;;;;0.30;0.30;;;8.80;99.90;;;;;;4987450;28;20273;-87
2022/04/17 06:56:20;;;;;;;0.30;0.30;;;8.90;99.90;;;;;;4992654;28;20680;-87
2022/04/17 06:58:46;;;;;;;0.20;0.20;;;9.00;99.90;;;;;;4974221;28;20712;-84
2022/04/17 07:01:14;;;;;;;0.30;0.30;;;9.20;99.90;;;;;;4971386;28;20178;-86
2022/04/17 07:03:40;;;;;;;0.20;0.20;;;9.20;99.90;;;;;;4989853;28;20448;-86
2022/04/17 07:06:05;;;;;;;0.23;0.23;;;9.20;99.90;;;;;;4969919;28;20952;-85
2022/04/17 07:08:31;;;;;;;0.20;0.20;;;9.40;99.90;;;;;;4988138;28;20533;-86
2022/04/17 07:10:57;;;;;;;0.20;0.20;;;9.40;99.90;;;;;;4989205;28;20200;-85
2022/04/17 07:13:24;;;;;;;0.20;0.20;;;9.40;99.90;;;;;;4992376;28;20273;-86
2022/04/17 07:15:50;;;;;;;0.20;0.20;;;9.70;99.90;;;;;;4992927;28;20228;-85
2022/04/17 07:18:16;;;;;;;0.20;0.20;;;9.60;99.90;;;;;;4972203;28;20545;-86
2022/04/17 07:20:41;;;;;;;0.20;0.20;;;9.60;98.40;;;;;;4971858;28;20971;-86
2022/04/17 07:23:07;;;;;;;0.20;0.20;;;9.70;98.30;;;;;;4987314;28;20197;-86
2022/04/17 07:25:34;;;;;;;0.20;0.20;;;9.90;99.40;;;;;;4980862;28;20196;-85
2022/04/17 07:27:59;;;;;;;0.20;0.20;;;9.80;98.10;;;;;;4973308;28;20217;-85
2022/04/17 07:30:30;;;;;;;0.20;0.20;;;9.90;97.80;;;;;;4993620;28;20446;-86
2022/04/17 07:32:58;;;;;;;0.20;0.20;;;10.00;95.20;;;;;;4987839;28;20667;-88
2022/04/17 07:35:26;;;;;;;0.20;0.20;;;9.90;94.70;;;;;;4974364;28;20498;-86
2022/04/17 07:38:00;;;;;;;0.20;0.20;;;9.90;95.40;;;;;;4991400;28;20464;-91
2022/04/17 07:40:28;;;;;;;0.20;0.20;;;9.80;93.70;;;;;;4977705;28;20793;-90
2022/04/17 07:42:56;;;;;;;0.20;0.20;;;9.90;95.20;;;;;;4969106;28;20448;-87
2022/04/17 07:45:23;;;;;;;0.20;0.20;;;10.00;94.30;;;;;;4969818;28;20543;-87
2022/04/17 07:47:50;;;;;;;0.20;0.20;;;10.30;95.00;;;;;;4969461;28;20479;-86
2022/04/17 07:50:21;;;;;;;0.20;0.20;;;10.50;93.10;;;;;;4991954;28;20463;-88
2022/04/17 07:52:47;;;;;;;0.13;0.13;;;11.00;94.80;;;;;;4973655;28;20679;-90
2022/04/17 07:55:14;;;;;;;0.17;0.17;;;11.10;92.00;;;;;;4981958;28;20453;-91
2022/04/17 08:00:32;;;;;;;0.20;0.20;;;11.30;92.30;;;;;;4992850;28;20451;-90
2022/04/17 08:03:10;;;;;;;0.13;0.13;;;11.30;92.50;;;;;;4973140;28;20448;-87
2022/04/17 08:05:39;;;;;;;0.13;0.13;;;11.20;91.70;;;;;;4970553;28;20440;-90
2022/04/17 08:08:08;;;;;;;0.20;0.20;;;11.30;91.40;;;;;;4974234;28;20526;-89
2022/04/17 08:10:35;;;;;;;0.10;0.10;;;11.20;91.70;;;;;;4990980;28;20448;-88
2022/04/17 08:13:01;;;;;;;0.10;0.10;;;11.70;91.60;;;;;;4989757;28;20952;-88
2022/04/17 08:15:26;;;;;;;0.10;0.10;;;11.60;86.40;;;;;;4967992;28;20476;-90
2022/04/17 08:17:52;;;;;;;0.10;0.10;;;11.90;92.10;;;;;;4992780;28;20233;-88
2022/04/17 08:20:18;;;;;;;0.10;0.10;;;12.00;90.90;;;;;;4988843;28;23014;-89
2022/04/17 08:22:44;;;;;;;0.10;0.10;;;12.30;91.50;;;;;;4974205;28;20544;-88
2022/04/17 08:25:09;;;;;;;0.10;0.10;;;12.00;86.80;;;;;;4980536;28;20605;-89
2022/04/17 08:27:47;;;;;;;0.10;0.10;;;12.20;90.80;;;;;;4989969;28;20217;-88
2022/04/17 08:30:14;;;;;;;0.07;0.07;;;11.80;85.00;;;;;;4992032;28;20216;-88
2022/04/17 08:32:40;;;;;;;0.10;0.10;;;11.80;86.10;;;;;;4988027;28;20436;-91
2022/04/17 08:35:06;;;;;;;0.10;0.10;;;11.70;84.10;;;;;;4955440;28;20453;-87
2022/04/17 08:37:32;;;;;;;0.10;0.10;;;11.70;86.20;;;;;;4989199;28;20479;-84
2022/04/17 08:39:57;;;;;;;0.10;0.10;;;11.90;88.80;;;;;;4977637;28;20486;-87
2022/04/17 08:42:24;;;;;;;0.07;0.07;;;12.20;80.50;;;;;;4984296;28;20214;-86
2022/04/17 08:44:53;;;;;;;0.10;0.10;;;12.40;81.10;;;;;;4972641;28;20193;-87
2022/04/17 08:47:19;;;;;;;0.10;0.10;;;12.70;83.70;;;;;;4972571;28;20465;-86
2022/04/17 08:49:45;;;;;;;0.10;0.10;;;12.70;82.10;;;;;;4990530;28;20975;-88
2022/04/17 08:52:15;;;;;;;0.10;0.10;;;12.40;75.80;;;;;;4971336;28;20563;-87
2022/04/17 08:54:42;;;;;;;0.10;0.10;;;12.60;79.40;;;;;;4983811;28;20464;-88
2022/04/17 08:57:08;;;;;;;0.10;0.10;;;13.00;83.60;;;;;;4970199;28;20444;-85
2022/04/17 08:59:33;;;;;;;0.00;0.00;;;13.10;79.70;;;;;;4965890;28;20999;-87
2022/04/17 09:02:08;;;;;;;0.10;0.10;;;13.60;81.50;;;;;;4985950;28;20185;-86
2022/04/17 09:04:33;;;;;;;0.10;0.10;;;13.70;81.40;;;;;;4991043;28;20192;-88
2022/04/17 09:07:00;;;;;;;0.10;0.10;;;14.00;78.10;;;;;;4987413;28;20447;-85
2022/04/17 09:09:26;;;;;;;0.10;0.10;;;13.90;76.00;;;;;;4969112;28;20682;-88
2022/04/17 09:11:55;;;;;;;0.07;0.07;;;13.90;75.10;;;;;;4988145;28;20436;-87
2022/04/17 09:14:20;;;;;;;0.10;0.10;;;14.10;80.50;;;;;;4987728;28;20221;-85
2022/04/17 09:16:51;;;;;;;0.07;0.07;;;13.90;73.90;;;;;;4981094;28;20456;-85
2022/04/17 09:19:18;;;;;;;0.10;0.10;;;14.30;76.80;;;;;;4977190;28;20224;-87
2022/04/17 09:21:44;;;;;;;0.10;0.10;;;13.90;65.10;;;;;;4983932;28;20563;-88
2022/04/17 09:24:26;;;;;;;0.10;0.10;;;14.10;71.50;;;;;;4982780;28;20999;-87
2022/04/17 09:26:56;;;;;;;0.00;0.00;;;14.00;67.90;;;;;;4990825;28;20443;-87
2022/04/17 09:29:30;;;;;;;0.10;0.10;;;13.70;70.20;;;;;;4989041;28;20482;-86
2022/04/17 09:32:02;;;;;;;0.03;0.03;;;13.60;71.40;;;;;;4969467;28;20502;-85
2022/04/17 09:34:40;;;;;;;0.10;0.10;;;14.40;75.50;;;;;;4970548;28;20485;-90
2022/04/17 09:37:14;;;;;;;0.07;0.07;;;14.90;75.00;;;;;;4989659;28;20432;-87
2022/04/17 09:39:40;;;;;;;0.00;0.00;;;15.20;75.50;;;;;;4983962;28;20451;-86
2022/04/17 09:42:07;;;;;;;0.00;0.00;;;14.80;67.00;;;;;;4989974;28;20456;-88
2022/04/17 09:44:46;;;;;;;0.00;0.00;;;15.20;75.50;;;;;;4969793;28;20799;-86
2022/04/17 09:47:14;;;;;;;0.00;0.00;;;14.90;75.60;;;;;;4988256;28;20463;-86
2022/04/17 09:50:01;;;;;;;0.00;0.00;;;14.70;71.80;;;;;;4971933;28;20463;-86
2022/04/17 09:52:35;;;;;;;0.00;0.00;;;15.10;72.90;;;;;;4983411;28;20445;-88
2022/04/17 09:55:02;;;;;;;0.00;0.00;;;15.80;76.90;;;;;;4991429;28;20404;-87
2022/04/17 09:57:33;;;;;;;0.00;0.00;;;15.90;70.70;;;;;;4986703;28;20484;-88
2022/04/17 10:00:18;;;;;;;0.00;0.00;;;15.50;66.60;;;;;;4984792;28;20447;-88
2022/04/17 10:02:47;;;;;;;0.00;0.00;;;15.70;68.30;;;;;;4958949;28;20452;-89
2022/04/17 10:05:16;;;;;;;0.00;0.00;;;16.10;70.20;;;;;;4979963;28;20451;-88
2022/04/17 10:07:47;;;;;;;0.00;0.00;;;16.40;67.50;;;;;;4980468;28;20527;-87
2022/04/17 10:10:14;;;;;;;0.00;0.00;;;16.80;65.40;;;;;;4971638;28;20436;-87
2022/04/17 10:12:45;;;;;;;0.00;0.00;;;16.40;68.80;;;;;;4987733;28;21419;-88
2022/04/17 10:15:11;;;;;;;0.00;0.00;;;16.30;67.00;;;;;;4987851;28;20507;-88
2022/04/17 10:17:38;;;;;;;0.00;0.00;;;16.80;69.20;;;;;;4984817;28;20959;-87
2022/04/17 10:20:06;;;;;;;0.00;0.00;;;17.00;62.80;;;;;;4988979;28;20535;-88
2022/04/17 10:22:33;;;;;;;0.00;0.00;;;16.80;64.10;;;;;;4982515;28;20794;-90
2022/04/17 10:25:02;;;;;;;0.00;0.00;;;17.00;67.40;;;;;;4985590;28;20444;-91
2022/04/17 10:27:42;;;;;;;0.00;0.00;;;17.30;58.10;;;;;;4967912;28;20468;-88
2022/04/17 10:30:12;;;;;;;0.00;0.00;;;17.60;59.00;;;;;;4979708;28;21033;-89
2022/04/17 10:33:00;;;;;;;0.00;0.00;;;17.80;54.50;;;;;;4985267;28;20959;-89
2022/04/17 10:36:03;;;;;;;0.00;0.00;;;17.50;58.10;;;;;;4979344;28;20492;-88
2022/04/17 10:38:45;;;;;;;0.00;0.00;;;18.20;53.00;;;;;;4977538;28;20825;-88
2022/04/17 10:41:15;;;;;;;0.00;0.00;;;18.10;54.10;;;;;;4972476;28;20797;-88
2022/04/17 10:43:56;;;;;;;0.00;0.00;;;18.50;55.50;;;;;;4988123;28;20479;-90
2022/04/17 10:46:22;;;;;;;0.00;0.00;;;18.50;57.10;;;;;;4986630;28;20463;-89
2022/04/17 10:48:49;;;;;;;0.00;0.00;;;18.00;55.50;;;;;;4985920;28;22030;-90
2022/04/17 10:51:36;;;;;;;0.00;0.00;;;18.30;58.00;;;;;;4984115;28;20603;-88
2022/04/17 10:54:06;;;;;;;0.00;0.00;;;18.50;56.60;;;;;;4988306;28;20462;-87
2022/04/17 10:56:39;;;;;;;0.00;0.00;;;18.70;52.90;;;;;;4966714;28;20479;-88
2022/04/17 10:59:18;;;;;;;0.00;0.00;;;18.90;55.80;;;;;;4983019;28;20459;-88
2022/04/17 11:01:43;;;;;;;0.00;0.00;;;19.60;53.60;;;;;;4966261;28;20445;-88
2022/04/17 11:04:22;;;;;;;0.00;0.00;;;19.30;55.70;;;;;;4980652;28;20502;-89
2022/04/17 11:07:11;;;;;;;0.00;0.00;;;19.50;55.40;;;;;;4988114;28;20196;-91
2022/04/17 11:09:40;;;;;;;0.00;0.00;;;19.50;58.20;;;;;;4966306;28;20542;-90
2022/04/17 11:12:05;;;;;;;0.00;0.00;;;20.00;57.70;;;;;;4972117;28;20484;-88
2022/04/17 11:14:32;;;;;;;0.00;0.00;;;19.30;52.60;;;;;;4969879;28;20499;-89
2022/04/17 11:16:59;;;;;;;0.00;0.00;;;19.70;53.30;;;;;;4986679;28;20185;-89
2022/04/17 11:19:31;;;;;;;0.00;0.00;;;19.50;54.30;;;;;;4985655;28;20873;-91
2022/04/17 11:21:59;;;;;;;0.00;0.00;;;19.60;51.60;;;;;;4985856;28;20526;-89
2022/04/17 11:24:27;;;;;;;0.00;0.00;;;20.20;51.30;;;;;;4981669;28;20538;-90
2022/04/17 11:26:56;;;;;;;0.00;0.00;;;20.50;50.50;;;;;;4964510;28;20448;-91
2022/04/17 11:29:40;;;;;;;0.00;0.00;;;19.90;51.90;;;;;;4984436;28;20586;-89
2022/04/17 11:32:18;;;;;;;0.00;0.00;;;20.20;51.00;;;;;;4962638;28;20459;-89
2022/04/17 11:34:46;;;;;;;0.00;0.00;;;20.00;50.90;;;;;;4959579;28;20452;-89
2022/04/17 11:37:12;;;;;;;0.00;0.00;;;21.40;57.30;;;;;;4981033;28;21182;-89
2022/04/17 11:39:38;;;;;;;0.00;0.00;;;21.00;48.30;;;;;;4986717;28;20598;-88
2022/04/17 11:42:06;;;;;;;0.00;0.00;;;21.20;47.30;;;;;;4985974;28;20554;-88
2022/04/17 11:44:32;;;;;;;0.00;0.00;;;20.40;48.40;;;;;;4988983;28;20459;-87
2022/04/17 11:46:58;;;;;;;0.00;0.00;;;21.00;52.50;;;;;;4966404;28;20947;-90
2022/04/17 11:49:25;;;;;;;0.00;0.00;;;21.80;48.40;;;;;;4985158;28;20487;-92
2022/04/17 11:51:51;;;;;;;0.00;0.00;;;21.90;54.10;;;;;;4972582;28;20204;-89
2022/04/17 11:54:32;;;;;;;0.00;0.00;;;21.80;46.00;;;;;;4980800;28;20449;-92
2022/04/17 11:56:58;;;;;;;0.00;0.00;;;22.10;49.40;;;;;;4984476;28;20475;-90
2022/04/17 11:59:23;;;;;;;0.00;0.00;;;21.50;48.10;;;;;;4984654;28;20512;-87
2022/04/17 12:02:13;;;;;;;0.00;0.00;;;22.40;50.00;;;;;;4960085;28;20239;-88
2022/04/17 12:04:38;;;;;;;0.00;0.00;;;21.30;51.50;;;;;;4966478;28;20193;-89
2022/04/17 12:07:04;;;;;;;0.00;0.00;;;21.30;50.70;;;;;;4987655;28;20440;-89
2022/04/17 12:09:30;;;;;;;0.00;0.00;;;22.50;51.60;;;;;;4985658;28;20197;-89
2022/04/17 12:11:55;;;;;;;0.00;0.00;;;23.10;51.70;;;;;;4969599;28;20311;-89
2022/04/17 12:14:31;;;;;;;0.00;0.00;;;22.30;52.30;;;;;;4970397;28;20228;-88
2022/04/17 12:16:57;;;;;;;0.00;0.00;;;21.90;50.30;;;;;;4977843;28;20181;-94
2022/04/17 12:19:27;;;;;;;0.00;0.00;;;22.50;49.80;;;;;;4968948;28;20448;-88
2022/04/17 12:21:53;;;;;;;0.00;0.00;;;23.20;48.10;;;;;;4983240;28;20280;-89
2022/04/17 12:24:19;;;;;;;0.00;0.00;;;23.60;46.90;;;;;;4970787;28;20574;-90
2022/04/17 12:26:46;;;;;;;0.00;0.00;;;23.30;46.70;;;;;;4984713;28;20479;-90
2022/04/17 12:29:13;;;;;;;0.00;0.00;;;22.50;47.10;;;;;;4978327;28;20487;-90
2022/04/17 12:31:38;;;;;;;0.00;0.00;;;23.00;47.80;;;;;;4969280;28;20456;-88
2022/04/17 12:34:08;;;;;;;0.00;0.00;;;23.10;47.80;;;;;;4987623;28;20456;-88
2022/04/17 12:36:37;;;;;;;0.00;0.00;;;23.80;45.30;;;;;;4971074;28;20192;-89
2022/04/17 12:39:03;;;;;;;0.00;0.00;;;23.50;45.20;;;;;;4984988;28;21383;-89
2022/04/17 12:41:46;;;;;;;0.00;0.00;;;23.30;46.70;;;;;;4968933;28;20440;-89
2022/04/17 12:44:11;;;;;;;0.00;0.00;;;23.50;45.70;;;;;;4982716;28;20738;-89
2022/04/17 12:46:42;;;;;;;0.00;0.00;;;23.20;47.60;;;;;;4971423;28;20956;-91
2022/04/17 12:49:10;;;;;;;0.00;0.00;;;23.20;47.10;;;;;;4981539;28;20831;-91
2022/04/17 12:51:39;;;;;;;0.00;0.00;;;23.50;49.20;;;;;;4988724;28;20472;-90
2022/04/17 12:54:10;;;;;;;0.00;0.00;;;23.50;45.70;;;;;;4962925;28;20875;-91
2022/04/17 12:56:36;;;;;;;0.00;0.00;;;24.10;44.10;;;;;;4982793;28;21208;-88
2022/04/17 12:59:02;;;;;;;0.00;0.00;;;23.10;43.60;;;;;;4968723;28;20474;-88
2022/04/17 13:01:32;;;;;;;0.00;0.00;;;22.40;45.60;;;;;;4983672;28;20284;-88
2022/04/17 13:04:20;;;;;;;0.00;0.00;;;22.90;46.50;;;;;;4973107;28;20189;-88
2022/04/17 13:06:47;;;;;;;0.00;0.00;;;23.80;45.20;;;;;;4963832;28;20456;-87
2022/04/17 13:09:18;;;;;;;0.00;0.00;;;24.40;43.70;;;;;;4980869;28;21285;-87
2022/04/17 13:11:49;;;;;;;0.00;0.00;;;24.00;44.20;;;;;;4984895;28;20440;-89